Time;durP1;ratioP1;P1;durP2;ratioP2;P2;SDS_P1;SDS_P2;PMS_P1;PMS_P2;Temp;Humidity;BMP_temperature;BMP_pressure;BME280_temperature;BME280_humidity;BME280_pressure;Samples;Min_cycle;Max_cycle;Signal;HPM_P1;HPM_P2
2022/11/12 00:00:50;;;;;;;20.23;15.25;;;7.20;99.90;;;;;;5073850;28;20040;-64
2022/11/12 00:03:15;;;;;;;20.17;15.15;;;7.30;99.90;;;;;;5055592;28;20491;-64
2022/11/12 00:05:42;;;;;;;18.63;14.55;;;7.80;99.90;;;;;;5056005;28;20334;-65
2022/11/12 00:08:08;;;;;;;23.20;15.68;;;7.40;99.90;;;;;;5041140;28;20210;-64
2022/11/12 00:10:34;;;;;;;20.58;15.23;;;7.70;99.90;;;;;;5039092;28;20052;-66
2022/11/12 00:12:59;;;;;;;21.08;14.90;;;6.80;99.90;;;;;;5074273;28;20111;-64
2022/11/12 00:15:25;;;;;;;20.30;14.93;;;6.80;99.90;;;;;;5056103;28;20214;-64
2022/11/12 00:17:51;;;;;;;19.83;15.48;;;6.80;99.90;;;;;;5054305;28;20032;-64
2022/11/12 00:20:17;;;;;;;19.85;15.60;;;6.30;99.90;;;;;;5054891;28;20066;-64
2022/11/12 00:22:42;;;;;;;20.88;15.75;;;6.60;99.90;;;;;;5056899;28;20044;-64
2022/11/12 00:25:08;;;;;;;21.13;15.80;;;7.40;99.90;;;;;;5075145;28;20085;-64
2022/11/12 00:27:34;;;;;;;26.10;17.42;;;6.80;99.90;;;;;;5055019;28;20047;-63
2022/11/12 00:30:02;;;;;;;23.88;16.77;;;7.30;99.90;;;;;;5038184;28;20489;-64
2022/11/12 00:32:27;;;;;;;23.70;17.33;;;7.60;99.90;;;;;;5072750;28;20046;-64
2022/11/12 00:34:53;;;;;;;21.75;16.77;;;7.30;99.90;;;;;;5022404;28;20413;-64
2022/11/12 00:37:19;;;;;;;19.42;15.57;;;6.60;99.90;;;;;;5038998;28;20036;-65
2022/11/12 00:39:45;;;;;;;23.15;17.52;;;6.80;99.90;;;;;;5056867;28;20056;-64
2022/11/12 00:42:11;;;;;;;21.67;17.23;;;6.00;99.90;;;;;;5074028;28;20054;-63
2022/11/12 00:44:37;;;;;;;22.45;17.15;;;6.60;99.90;;;;;;5055297;28;20036;-63
2022/11/12 00:47:03;;;;;;;24.75;17.65;;;6.40;99.90;;;;;;5056726;28;20040;-65
2022/11/12 00:49:28;;;;;;;25.17;17.50;;;5.90;99.90;;;;;;5072113;28;20377;-65
2022/11/12 00:51:54;;;;;;;22.25;16.80;;;6.80;99.90;;;;;;5054458;28;20642;-65
2022/11/12 00:54:20;;;;;;;25.17;18.30;;;6.40;99.90;;;;;;5056055;28;20188;-65
2022/11/12 00:56:46;;;;;;;23.85;17.48;;;5.90;99.90;;;;;;5058017;28;20485;-64
2022/11/12 00:59:12;;;;;;;23.98;19.38;;;7.30;99.90;;;;;;5022426;28;20044;-64
2022/11/12 01:01:38;;;;;;;30.40;19.83;;;6.30;99.90;;;;;;5074709;28;20406;-64
2022/11/12 01:04:04;;;;;;;24.75;18.70;;;6.50;99.90;;;;;;5054489;28;20044;-65
2022/11/12 01:06:30;;;;;;;24.95;18.45;;;6.60;99.90;;;;;;5054782;28;20482;-66
2022/11/12 01:08:56;;;;;;;23.48;17.63;;;6.50;99.90;;;;;;5075939;28;20117;-66
2022/11/12 01:11:24;;;;;;;26.10;18.92;;;7.20;99.90;;;;;;5075286;28;20039;-65
2022/11/12 01:13:58;;;;;;;23.92;18.92;;;6.50;99.90;;;;;;5038831;28;20111;-66
2022/11/12 01:16:27;;;;;;;27.75;19.83;;;6.00;99.90;;;;;;5073997;28;20067;-66
2022/11/12 01:18:54;;;;;;;27.45;18.73;;;7.10;99.90;;;;;;5057505;28;20254;-66
2022/11/12 01:21:21;;;;;;;27.55;18.88;;;7.00;99.90;;;;;;5071204;28;20048;-65
2022/11/12 01:23:47;;;;;;;26.40;18.80;;;7.30;99.90;;;;;;5074925;28;20596;-65
2022/11/12 01:26:15;;;;;;;24.48;18.40;;;6.60;99.90;;;;;;5060435;28;20047;-65
2022/11/12 01:28:42;;;;;;;22.40;17.98;;;7.30;99.90;;;;;;5045094;28;20082;-64
2022/11/12 01:31:20;;;;;;;27.73;19.20;;;6.50;99.90;;;;;;5043545;28;20059;-65
2022/11/12 01:33:48;;;;;;;26.05;19.85;;;6.40;99.90;;;;;;5062630;28;20051;-66
2022/11/12 01:36:15;;;;;;;25.92;19.08;;;7.10;99.90;;;;;;5058211;28;20302;-65
2022/11/12 01:38:43;;;;;;;25.70;17.63;;;6.40;99.90;;;;;;5077025;28;20405;-65
2022/11/12 01:41:11;;;;;;;24.00;19.40;;;6.80;99.90;;;;;;5080156;28;20522;-64
2022/11/12 01:43:37;;;;;;;28.10;20.92;;;7.10;99.90;;;;;;5078847;28;20094;-64
2022/11/12 01:46:19;;;;;;;27.02;21.08;;;5.90;99.90;;;;;;5042706;28;20472;-64
2022/11/12 01:48:50;;;;;;;27.02;20.63;;;6.60;99.90;;;;;;5060947;28;20535;-64
2022/11/12 01:51:19;;;;;;;28.13;20.77;;;5.50;99.90;;;;;;5059226;28;20078;-64
2022/11/12 01:53:48;;;;;;;28.73;19.80;;;6.40;99.90;;;;;;5057045;28;20036;-64
2022/11/12 01:56:16;;;;;;;32.25;22.33;;;6.80;99.90;;;;;;5060294;28;20524;-64
2022/11/12 01:58:44;;;;;;;29.48;22.55;;;7.00;99.90;;;;;;5086141;28;20036;-63
2022/11/12 02:01:10;;;;;;;28.42;21.73;;;5.60;99.90;;;;;;5050354;28;20413;-64
2022/11/12 02:03:36;;;;;;;34.03;21.02;;;6.60;99.90;;;;;;5066759;28;20036;-64
2022/11/12 02:06:06;;;;;;;30.27;22.83;;;6.40;99.90;;;;;;5067713;28;20040;-64
2022/11/12 02:08:33;;;;;;;30.20;21.75;;;5.70;99.90;;;;;;5038830;28;20311;-66
2022/11/12 02:11:13;;;;;;;29.90;23.08;;;6.30;99.90;;;;;;5059463;28;20616;-65
2022/11/12 02:14:00;;;;;;;34.42;23.42;;;6.20;99.90;;;;;;5059553;28;20062;-65
2022/11/12 02:16:40;;;;;;;37.03;24.92;;;6.00;99.90;;;;;;5075813;28;20177;-65
2022/11/12 02:19:09;;;;;;;34.45;24.65;;;6.90;99.90;;;;;;5040988;28;20105;-65
2022/11/12 02:21:35;;;;;;;35.35;25.35;;;6.10;99.90;;;;;;5075976;28;20055;-65
2022/11/12 02:24:25;;;;;;;36.70;24.40;;;6.00;99.90;;;;;;5073882;28;20052;-64
2022/11/12 02:26:54;;;;;;;37.53;24.95;;;6.60;99.90;;;;;;5058625;28;20113;-64
2022/11/12 02:29:21;;;;;;;37.10;25.40;;;6.60;99.90;;;;;;5076488;28;20032;-64
2022/11/12 02:31:47;;;;;;;37.45;27.13;;;6.30;99.90;;;;;;5041102;28;20040;-64
2022/11/12 02:34:12;;;;;;;35.17;24.70;;;5.50;99.90;;;;;;5058822;28;20062;-63
2022/11/12 02:36:38;;;;;;;41.30;27.83;;;6.80;99.90;;;;;;5077048;28;20040;-63
2022/11/12 02:39:04;;;;;;;34.55;25.73;;;5.50;99.90;;;;;;5074200;28;20115;-64
2022/11/12 02:41:30;;;;;;;44.78;29.95;;;6.60;99.90;;;;;;5058140;28;20144;-63
2022/11/12 02:43:56;;;;;;;38.40;27.50;;;5.20;99.90;;;;;;5058246;28;20058;-64
2022/11/12 02:46:22;;;;;;;40.80;28.77;;;6.20;99.90;;;;;;5057931;28;20129;-64
2022/11/12 02:48:47;;;;;;;37.58;27.30;;;6.70;99.90;;;;;;5057438;28;20036;-65
2022/11/12 02:51:13;;;;;;;41.00;29.70;;;5.30;99.90;;;;;;5076455;28;20446;-63
2022/11/12 02:53:39;;;;;;;45.63;30.13;;;6.50;99.90;;;;;;5033768;28;20274;-64
2022/11/12 02:56:05;;;;;;;41.47;30.13;;;5.20;99.90;;;;;;5038194;28;20040;-64
2022/11/12 02:58:31;;;;;;;47.50;31.00;;;6.30;99.90;;;;;;5041387;28;20040;-64
2022/11/12 03:00:57;;;;;;;42.42;32.25;;;6.50;99.90;;;;;;5057291;28;20518;-64
2022/11/12 03:03:23;;;;;;;41.13;31.15;;;5.00;99.90;;;;;;5074455;28;20082;-64
2022/11/12 03:05:58;;;;;;;45.75;32.30;;;6.20;99.90;;;;;;5058508;28;20039;-65
2022/11/12 03:08:24;;;;;;;38.83;29.17;;;5.90;99.90;;;;;;5058028;28;20047;-64
2022/11/12 03:10:50;;;;;;;48.22;33.75;;;5.70;99.90;;;;;;5025841;28;20271;-64
2022/11/12 03:13:16;;;;;;;48.28;31.05;;;6.40;99.90;;;;;;5058612;28;20039;-65
2022/11/12 03:15:41;;;;;;;46.17;32.10;;;5.70;99.90;;;;;;5018065;28;20210;-64
2022/11/12 03:18:07;;;;;;;45.97;31.90;;;5.60;99.90;;;;;;5057042;28;21214;-63
2022/11/12 03:20:33;;;;;;;48.30;32.85;;;6.70;99.90;;;;;;5075220;28;20035;-64
2022/11/12 03:23:05;;;;;;;43.38;31.45;;;5.90;99.90;;;;;;5059002;28;20040;-63
2022/11/12 03:25:32;;;;;;;45.08;34.35;;;5.40;99.90;;;;;;5040803;28;20048;-63
2022/11/12 03:27:57;;;;;;;45.88;33.92;;;5.20;99.90;;;;;;5056226;28;20036;-64
2022/11/12 03:30:28;;;;;;;48.35;35.03;;;5.10;99.90;;;;;;5058732;28;20048;-63
2022/11/12 03:32:54;;;;;;;47.95;32.92;;;6.60;99.90;;;;;;5042375;28;20048;-63
2022/11/12 03:35:20;;;;;;;54.28;34.17;;;5.70;99.90;;;;;;5058605;28;20039;-64
2022/11/12 03:37:45;;;;;;;44.95;33.35;;;5.00;99.90;;;;;;5026946;28;20181;-64
2022/11/12 03:40:11;;;;;;;54.15;34.38;;;6.40;99.90;;;;;;5042447;28;20402;-63
2022/11/12 03:42:37;;;;;;;49.92;36.35;;;5.60;99.90;;;;;;5039145;28;20103;-65
2022/11/12 03:45:03;;;;;;;55.95;35.38;;;5.90;99.90;;;;;;5060428;28;20044;-65
2022/11/12 03:47:28;;;;;;;50.92;35.78;;;5.20;99.90;;;;;;5077662;28;20048;-65
2022/11/12 03:49:54;;;;;;;47.15;33.92;;;6.30;99.90;;;;;;5041313;28;20395;-65
2022/11/12 03:52:20;;;;;;;56.38;35.67;;;5.20;99.90;;;;;;5078922;28;20044;-65
2022/11/12 03:54:45;;;;;;;50.53;36.10;;;5.00;99.90;;;;;;5059039;28;20047;-66
2022/11/12 03:57:11;;;;;;;52.15;36.72;;;5.60;99.90;;;;;;5075133;28;20458;-64
2022/11/12 03:59:36;;;;;;;55.28;38.05;;;5.20;99.90;;;;;;5040434;28;20081;-65
2022/11/12 04:02:02;;;;;;;54.28;39.00;;;6.30;99.90;;;;;;5058224;28;20043;-65
2022/11/12 04:08:34;;;;;;;52.42;35.22;;;6.60;99.90;;;;;;5057008;28;20047;-64
2022/11/12 04:09:58;;;;;;;65.68;41.22;;;5.30;99.90;;;;;;5056254;28;20077;-64
2022/11/12 04:15:08;;;;;;;52.47;37.42;;;6.50;99.90;;;;;;5081255;28;20051;-63
2022/11/12 04:23:02;;;;;;;57.13;39.55;;;6.40;99.90;;;;;;5074829;28;20132;-63
2022/11/12 04:28:12;;;;;;;54.05;38.17;;;4.90;99.90;;;;;;5072892;28;20064;-65
2022/11/12 04:30:38;;;;;;;59.45;40.30;;;5.40;99.90;;;;;;5072382;28;20151;-62
2022/11/12 04:33:03;;;;;;;60.92;40.17;;;5.70;99.90;;;;;;5057159;28;20089;-66
2022/11/12 04:35:29;;;;;;;58.47;39.55;;;5.40;99.90;;;;;;5037356;28;20043;-63
2022/11/12 04:37:55;;;;;;;62.60;41.65;;;5.10;99.90;;;;;;5039177;28;20359;-64
2022/11/12 04:45:58;;;;;;;61.90;43.33;;;5.10;99.90;;;;;;5052484;28;20342;-64
2022/11/12 04:48:24;;;;;;;61.53;44.38;;;6.20;99.90;;;;;;5056044;28;21962;-64
2022/11/12 04:50:59;;;;;;;66.43;45.80;;;6.00;99.90;;;;;;5055932;28;20040;-64
2022/11/12 04:53:26;;;;;;;63.80;42.70;;;4.70;99.90;;;;;;5057282;28;20039;-65
2022/11/12 04:55:53;;;;;;;65.47;43.58;;;5.30;99.90;;;;;;5074897;28;20082;-64
2022/11/12 04:58:19;;;;;;;65.53;45.33;;;4.50;99.90;;;;;;5055348;28;20032;-64
2022/11/12 05:00:45;;;;;;;63.05;44.25;;;5.30;99.90;;;;;;5037503;28;20173;-64
2022/11/12 05:03:11;;;;;;;67.75;47.60;;;5.30;99.90;;;;;;5051993;28;20055;-64
2022/11/12 05:05:36;;;;;;;64.28;44.88;;;5.60;99.90;;;;;;5055577;28;20047;-64
2022/11/12 05:08:02;;;;;;;71.88;49.13;;;4.80;99.90;;;;;;5037370;28;20040;-65
2022/11/12 05:10:29;;;;;;;72.03;46.78;;;4.60;99.90;;;;;;5056390;28;20123;-65
2022/11/12 05:12:55;;;;;;;72.15;49.38;;;4.70;99.90;;;;;;5054639;28;20114;-64
2022/11/12 05:15:21;;;;;;;64.20;44.70;;;6.10;99.90;;;;;;5072512;28;20051;-64
2022/11/12 05:17:46;;;;;;;72.35;48.67;;;5.50;99.90;;;;;;5053150;28;20040;-65
2022/11/12 05:20:13;;;;;;;74.70;50.25;;;5.10;99.90;;;;;;5038580;28;21201;-64
2022/11/12 05:22:39;;;;;;;66.30;45.08;;;4.70;99.90;;;;;;5072806;28;20142;-64
2022/11/12 05:25:06;;;;;;;76.00;48.95;;;5.90;99.90;;;;;;5057582;28;20040;-64
2022/11/12 05:27:33;;;;;;;77.20;50.90;;;6.00;99.90;;;;;;5056449;28;20135;-64
2022/11/12 05:29:58;;;;;;;78.50;47.67;;;5.40;99.90;;;;;;5039230;28;20445;-63
2022/11/12 05:32:25;;;;;;;69.25;46.65;;;5.40;99.90;;;;;;5056961;28;20063;-65
2022/11/12 05:34:51;;;;;;;71.72;45.92;;;6.00;99.90;;;;;;5056431;28;20040;-65
2022/11/12 05:37:20;;;;;;;80.18;51.53;;;5.90;99.90;;;;;;5040927;28;20039;-66
2022/11/12 05:39:45;;;;;;;85.38;53.17;;;5.90;99.90;;;;;;5041275;28;20051;-65
2022/11/12 05:42:11;;;;;;;82.20;53.67;;;5.20;99.90;;;;;;5076541;28;20087;-65
2022/11/12 05:44:37;;;;;;;74.80;47.88;;;4.60;99.90;;;;;;5059084;28;20044;-66
2022/11/12 05:47:02;;;;;;;79.40;52.10;;;4.80;99.90;;;;;;5057629;28;20043;-65
2022/11/12 05:49:29;;;;;;;80.13;50.65;;;4.50;99.90;;;;;;5023116;28;20048;-65
2022/11/12 05:51:54;;;;;;;81.60;54.90;;;5.80;99.90;;;;;;5041975;28;20040;-66
2022/11/12 05:54:20;;;;;;;84.60;55.55;;;4.50;99.90;;;;;;5039987;28;20047;-65
2022/11/12 05:56:46;;;;;;;85.05;52.65;;;5.90;99.90;;;;;;5057369;28;20059;-66
2022/11/12 05:59:13;;;;;;;84.85;55.78;;;5.90;99.90;;;;;;5056488;28;20062;-65
2022/11/12 06:01:42;;;;;;;87.18;51.40;;;4.20;99.90;;;;;;5039008;28;20048;-65
2022/11/12 06:04:13;;;;;;;91.57;57.28;;;4.60;99.90;;;;;;5057246;28;20509;-65
2022/11/12 06:06:40;;;;;;;89.80;56.53;;;5.30;99.90;;;;;;5055847;28;20059;-66
2022/11/12 06:09:07;;;;;;;95.18;56.60;;;5.80;99.90;;;;;;5038688;28;20093;-64
2022/11/12 06:11:33;;;;;;;85.68;55.40;;;4.60;99.90;;;;;;5039349;28;20129;-63
2022/11/12 06:13:59;;;;;;;79.20;55.80;;;5.50;99.90;;;;;;5041903;28;20476;-63
2022/11/12 06:16:25;;;;;;;85.05;54.60;;;5.10;99.90;;;;;;5057306;28;20040;-64
2022/11/12 06:18:51;;;;;;;94.38;58.38;;;4.20;99.90;;;;;;5058934;28;20548;-65
2022/11/12 06:21:20;;;;;;;91.93;56.85;;;4.70;99.90;;;;;;5038655;28;20200;-64
2022/11/12 06:23:47;;;;;;;85.82;54.35;;;4.20;99.90;;;;;;5075770;28;20142;-64
2022/11/12 06:26:13;;;;;;;92.25;59.65;;;5.40;99.90;;;;;;5076746;28;20129;-64
2022/11/12 06:28:39;;;;;;;90.63;57.42;;;4.90;99.90;;;;;;5059316;28;20075;-64
2022/11/12 06:31:05;;;;;;;91.78;53.42;;;4.90;99.90;;;;;;5076156;28;20036;-64
2022/11/12 06:33:30;;;;;;;101.57;57.67;;;4.00;99.90;;;;;;5057236;28;20557;-64
2022/11/12 06:36:01;;;;;;;100.32;60.15;;;5.20;99.90;;;;;;5037840;28;20450;-65
2022/11/12 06:38:31;;;;;;;108.25;67.45;;;5.40;99.90;;;;;;5083843;28;20051;-63
2022/11/12 06:40:57;;;;;;;96.30;61.63;;;4.90;99.90;;;;;;5083765;28;20168;-64
2022/11/12 06:43:24;;;;;;;89.65;57.92;;;5.40;99.90;;;;;;5085040;28;20493;-64
2022/11/12 06:45:50;;;;;;;89.22;58.28;;;4.70;99.90;;;;;;5050005;28;20047;-63
2022/11/12 06:48:15;;;;;;;93.15;56.17;;;5.10;99.90;;;;;;5059244;28;20181;-64
2022/11/12 06:50:41;;;;;;;94.80;59.58;;;4.00;99.90;;;;;;5041068;28;20259;-63
2022/11/12 06:53:07;;;;;;;93.47;58.33;;;5.40;99.90;;;;;;5074031;28;20040;-64
2022/11/12 06:55:32;;;;;;;87.38;56.45;;;4.70;99.90;;;;;;5039725;28;20075;-63
2022/11/12 06:57:58;;;;;;;91.47;55.17;;;4.30;99.90;;;;;;5076685;28;20039;-63
2022/11/12 07:00:24;;;;;;;101.05;57.45;;;3.90;99.90;;;;;;5076232;28;20035;-64
2022/11/12 07:02:49;;;;;;;91.60;55.08;;;3.90;99.90;;;;;;5074740;28;20746;-64
2022/11/12 07:05:15;;;;;;;91.97;56.15;;;3.90;99.90;;;;;;5057267;28;20040;-64
2022/11/12 07:07:41;;;;;;;85.22;50.85;;;4.90;99.90;;;;;;5058014;28;20040;-64
2022/11/12 07:10:07;;;;;;;93.75;55.20;;;5.00;99.90;;;;;;5054485;28;20416;-63
2022/11/12 07:12:33;;;;;;;104.88;58.47;;;3.90;99.90;;;;;;5056894;28;20040;-64
2022/11/12 07:14:58;;;;;;;87.35;52.28;;;3.90;99.90;;;;;;5057368;28;20068;-64
2022/11/12 07:17:24;;;;;;;76.85;49.22;;;5.30;99.90;;;;;;5057406;28;20042;-63
2022/11/12 07:19:50;;;;;;;78.38;50.75;;;4.00;99.90;;;;;;5056731;28;20220;-64
2022/11/12 07:22:16;;;;;;;98.32;55.80;;;5.40;99.90;;;;;;5076432;28;20114;-64
2022/11/12 07:24:41;;;;;;;94.07;54.72;;;4.40;99.90;;;;;;5055319;28;20143;-65
2022/11/12 07:27:07;;;;;;;76.15;49.30;;;5.20;99.90;;;;;;5040249;28;20043;-64
2022/11/12 07:29:33;;;;;;;74.68;47.80;;;5.00;99.90;;;;;;5058795;28;20418;-65
2022/11/12 07:31:58;;;;;;;66.70;42.33;;;3.80;99.90;;;;;;5026076;28;20040;-64
2022/11/12 07:34:24;;;;;;;87.25;51.60;;;4.10;99.90;;;;;;5056577;28;20308;-64
2022/11/12 07:36:50;;;;;;;81.05;50.45;;;4.40;99.90;;;;;;5058686;28;20032;-64
2022/11/12 07:39:17;;;;;;;81.47;50.33;;;5.20;99.90;;;;;;5043012;28;20075;-64
2022/11/12 07:41:43;;;;;;;75.00;47.15;;;4.10;99.90;;;;;;5077230;28;20051;-63
2022/11/12 07:44:09;;;;;;;78.65;48.22;;;5.60;99.90;;;;;;5079310;28;20039;-64
2022/11/12 07:46:35;;;;;;;77.00;47.15;;;4.40;99.90;;;;;;5059880;28;20456;-64
2022/11/12 07:49:01;;;;;;;70.32;44.75;;;4.20;99.90;;;;;;5042011;28;20051;-63
2022/11/12 07:51:28;;;;;;;70.32;46.55;;;5.30;99.90;;;;;;5059558;28;20120;-63
2022/11/12 07:53:56;;;;;;;66.95;44.38;;;5.00;99.90;;;;;;5042357;28;20036;-64
2022/11/12 07:56:24;;;;;;;66.57;43.92;;;4.40;99.90;;;;;;5073928;28;20048;-65
2022/11/12 07:58:50;;;;;;;59.97;42.13;;;4.80;99.90;;;;;;5075838;28;20314;-63
2022/11/12 08:01:30;;;;;;;70.90;48.13;;;5.30;99.90;;;;;;5041430;28;20051;-64
2022/11/12 08:03:56;;;;;;;73.57;45.78;;;4.60;99.90;;;;;;5057849;28;21214;-65
2022/11/12 08:06:22;;;;;;;67.55;46.70;;;6.10;99.90;;;;;;5056996;28;20126;-64
2022/11/12 08:08:51;;;;;;;61.75;43.08;;;6.30;99.90;;;;;;5057883;28;20066;-64
2022/11/12 08:11:17;;;;;;;69.32;43.80;;;4.90;99.90;;;;;;5056782;28;20090;-64
2022/11/12 08:13:43;;;;;;;68.10;41.83;;;5.50;99.90;;;;;;5054982;28;20055;-64
2022/11/12 08:16:09;;;;;;;74.75;45.22;;;5.20;99.90;;;;;;5057167;28;20036;-65
2022/11/12 08:18:34;;;;;;;86.22;48.38;;;6.00;99.90;;;;;;5059271;28;20043;-64
2022/11/12 08:21:02;;;;;;;131.45;55.72;;;5.20;99.90;;;;;;5075914;28;20139;-64
2022/11/12 08:23:28;;;;;;;252.10;77.13;;;5.60;99.90;;;;;;5058765;28;20048;-64
2022/11/12 08:26:01;;;;;;;283.88;81.25;;;5.40;99.90;;;;;;5057742;28;20506;-64
2022/11/12 08:28:28;;;;;;;398.30;92.45;;;6.10;99.90;;;;;;5053208;28;20051;-63
2022/11/12 08:30:54;;;;;;;424.58;97.63;;;6.70;99.90;;;;;;5075574;28;20036;-64
2022/11/12 08:33:20;;;;;;;569.92;113.82;;;6.80;99.90;;;;;;5056933;28;20571;-64
2022/11/12 08:35:45;;;;;;;480.13;93.40;;;6.80;99.90;;;;;;5054844;28;20035;-64
2022/11/12 08:38:12;;;;;;;477.13;98.80;;;6.40;99.90;;;;;;5074729;28;20151;-63
2022/11/12 08:40:39;;;;;;;432.58;86.88;;;5.90;99.90;;;;;;5058815;28;20047;-63
2022/11/12 08:43:07;;;;;;;434.35;88.55;;;6.70;99.90;;;;;;5058681;28;20097;-65
2022/11/12 08:45:35;;;;;;;383.17;86.50;;;5.80;99.90;;;;;;5039527;28;20489;-64
2022/11/12 08:48:03;;;;;;;203.23;55.47;;;5.80;99.90;;;;;;5059697;28;20139;-65
2022/11/12 08:50:29;;;;;;;345.67;78.65;;;6.00;99.90;;;;;;5058879;28;20051;-64
2022/11/12 08:53:00;;;;;;;298.83;70.05;;;6.70;99.90;;;;;;5041963;28;20158;-65
2022/11/12 08:55:28;;;;;;;305.15;77.60;;;6.30;99.90;;;;;;5059202;28;20115;-65
2022/11/12 08:57:54;;;;;;;345.95;76.75;;;6.60;99.90;;;;;;5077588;28;20040;-66
2022/11/12 09:00:20;;;;;;;325.60;79.43;;;6.70;99.90;;;;;;5055147;28;20401;-65
2022/11/12 09:02:46;;;;;;;304.90;77.00;;;6.60;99.90;;;;;;5078265;28;20036;-65
2022/11/12 09:05:11;;;;;;;382.05;90.78;;;6.80;99.90;;;;;;5078144;28;20089;-65
2022/11/12 09:07:37;;;;;;;319.80;80.55;;;5.70;99.90;;;;;;5042369;28;20053;-65
2022/11/12 09:10:03;;;;;;;285.00;73.03;;;5.80;99.90;;;;;;5078553;28;20070;-66
2022/11/12 09:12:29;;;;;;;305.83;75.78;;;6.80;99.90;;;;;;5044113;28;20075;-65
2022/11/12 09:14:55;;;;;;;215.15;61.47;;;5.70;99.90;;;;;;5076592;28;20101;-65
2022/11/12 09:17:20;;;;;;;261.67;67.20;;;7.00;99.90;;;;;;5042715;28;20036;-66
2022/11/12 09:19:46;;;;;;;366.10;72.82;;;7.00;99.90;;;;;;5060726;28;20126;-63
2022/11/12 09:22:12;;;;;;;373.77;71.43;;;6.00;99.90;;;;;;5058173;28;20081;-65
2022/11/12 09:24:38;;;;;;;406.63;70.78;;;6.10;99.90;;;;;;5058811;28;20054;-64
2022/11/12 09:27:03;;;;;;;467.00;78.80;;;7.00;99.90;;;;;;5042667;28;20055;-65
2022/11/12 09:29:29;;;;;;;364.67;62.10;;;6.70;99.90;;;;;;5058699;28;20047;-65
2022/11/12 09:31:54;;;;;;;268.83;53.15;;;7.20;99.90;;;;;;5039032;28;20131;-64
2022/11/12 09:34:20;;;;;;;299.42;56.80;;;6.90;99.90;;;;;;5059161;28;20073;-64
2022/11/12 09:36:46;;;;;;;401.13;59.33;;;7.50;99.90;;;;;;5059078;28;20097;-64
2022/11/12 09:39:11;;;;;;;345.70;52.40;;;7.30;99.90;;;;;;5057591;28;20092;-65
2022/11/12 09:41:40;;;;;;;400.42;58.75;;;7.30;99.90;;;;;;5077300;28;20047;-65
2022/11/12 09:44:19;;;;;;;295.98;54.30;;;7.40;99.90;;;;;;5059393;28;20421;-64
2022/11/12 09:46:49;;;;;;;448.35;66.85;;;7.20;99.90;;;;;;5075116;28;20695;-65
2022/11/12 09:49:22;;;;;;;377.05;61.63;;;7.80;99.90;;;;;;5062390;28;20084;-64
2022/11/12 09:52:05;;;;;;;409.73;57.45;;;7.70;99.90;;;;;;5046348;28;20055;-66
2022/11/12 09:54:33;;;;;;;409.48;62.13;;;7.70;99.90;;;;;;5061865;28;20047;-66
2022/11/12 09:57:00;;;;;;;430.45;65.15;;;7.70;99.90;;;;;;5063579;28;20504;-64
2022/11/12 09:59:36;;;;;;;446.58;66.03;;;7.90;99.90;;;;;;5063167;28;20050;-64
2022/11/12 10:02:17;;;;;;;329.65;54.70;;;7.70;99.90;;;;;;5061395;28;20060;-65
2022/11/12 10:05:02;;;;;;;426.60;66.50;;;7.70;99.90;;;;;;5061861;28;20048;-64
2022/11/12 10:07:40;;;;;;;396.92;65.72;;;7.80;99.90;;;;;;5062840;28;20059;-65
2022/11/12 10:10:14;;;;;;;436.33;67.70;;;7.30;99.90;;;;;;5079691;28;20461;-66
2022/11/12 10:13:18;;;;;;;525.28;75.72;;;7.60;99.90;;;;;;5063217;28;20413;-66
2022/11/12 10:18:51;;;;;;;390.83;54.72;;;8.10;99.90;;;;;;5059291;28;20048;-65
2022/11/12 10:21:19;;;;;;;401.83;54.30;;;7.30;99.90;;;;;;5081255;28;20048;-65
2022/11/12 10:23:48;;;;;;;450.17;59.17;;;7.40;99.90;;;;;;5062553;28;20082;-65
2022/11/12 10:26:16;;;;;;;443.50;59.15;;;8.00;99.90;;;;;;5079999;28;20090;-65
2022/11/12 10:29:00;;;;;;;554.42;64.78;;;8.10;99.90;;;;;;5045882;28;20075;-65
2022/11/12 10:31:25;;;;;;;518.15;68.10;;;8.10;99.90;;;;;;5080146;28;20044;-65
2022/11/12 10:34:08;;;;;;;443.95;60.33;;;8.30;99.90;;;;;;5060802;28;20125;-65
2022/11/12 10:36:37;;;;;;;377.25;59.60;;;8.00;99.90;;;;;;5062175;28;20067;-65
2022/11/12 10:39:04;;;;;;;417.40;59.35;;;8.20;99.90;;;;;;5080455;28;20137;-65
2022/11/12 10:41:32;;;;;;;457.00;54.65;;;8.10;99.90;;;;;;5080121;28;20101;-64
2022/11/12 10:44:03;;;;;;;471.60;61.60;;;7.70;99.90;;;;;;5085919;28;20589;-64
2022/11/12 10:46:37;;;;;;;598.50;61.45;;;8.30;99.90;;;;;;5067928;28;20503;-64
2022/11/12 10:49:23;;;;;;;531.47;66.70;;;7.90;99.90;;;;;;5067354;28;20138;-64
2022/11/12 10:51:58;;;;;;;528.78;59.65;;;8.60;99.90;;;;;;5066016;28;20203;-64
2022/11/12 10:54:35;;;;;;;775.67;70.25;;;7.70;99.90;;;;;;5051162;28;20123;-64
2022/11/12 10:57:22;;;;;;;590.20;69.47;;;8.50;99.90;;;;;;5066721;28;20048;-64
2022/11/12 11:00:06;;;;;;;551.63;72.50;;;8.10;99.90;;;;;;5067234;28;20040;-64
2022/11/12 11:02:32;;;;;;;557.35;77.43;;;7.80;99.90;;;;;;5067307;28;20083;-65
2022/11/12 11:04:57;;;;;;;453.75;67.95;;;8.30;99.90;;;;;;5085028;28;20055;-63
2022/11/12 11:07:24;;;;;;;488.35;76.60;;;8.50;99.90;;;;;;5065152;28;20384;-64
2022/11/12 11:09:54;;;;;;;646.55;81.55;;;8.20;99.90;;;;;;5067236;28;20036;-64
2022/11/12 11:12:32;;;;;;;539.88;81.35;;;8.80;99.90;;;;;;5066548;28;20051;-65
2022/11/12 11:15:10;;;;;;;470.65;66.22;;;8.50;99.90;;;;;;5085492;28;20363;-63
2022/11/12 11:17:36;;;;;;;494.60;72.10;;;8.70;99.90;;;;;;5067079;28;20489;-63
2022/11/12 11:20:23;;;;;;;536.88;80.10;;;8.30;99.90;;;;;;5066426;28;20044;-63
2022/11/12 11:23:05;;;;;;;488.25;68.22;;;8.90;99.90;;;;;;5065291;28;20520;-64
2022/11/12 11:25:34;;;;;;;524.78;86.13;;;8.80;99.90;;;;;;5067205;28;20044;-63
2022/11/12 11:28:12;;;;;;;485.95;70.82;;;8.90;99.90;;;;;;5066555;28;20044;-63
2022/11/12 11:30:49;;;;;;;678.10;88.25;;;8.70;99.90;;;;;;5085386;28;20486;-67
2022/11/12 11:34:05;;;;;;;637.10;84.30;;;8.20;99.90;;;;;;5081984;28;20040;-64
2022/11/12 11:36:57;;;;;;;684.72;93.38;;;8.00;99.90;;;;;;4961079;28;20420;-64
2022/11/12 11:39:47;;;;;;;585.40;87.70;;;8.00;99.90;;;;;;5058815;28;20060;-65
2022/11/12 11:42:19;;;;;;;517.13;72.40;;;8.60;99.90;;;;;;5042925;28;20055;-65
2022/11/12 11:44:47;;;;;;;616.15;89.05;;;8.90;99.90;;;;;;5061124;28;20248;-65
2022/11/12 11:47:52;;;;;;;716.30;97.30;;;8.10;99.90;;;;;;5061649;28;20036;-66
2022/11/12 11:50:18;;;;;;;595.10;82.20;;;8.20;99.90;;;;;;5009341;28;20058;-65
2022/11/12 11:52:51;;;;;;;455.33;80.00;;;8.40;99.90;;;;;;5063962;28;20047;-63
2022/11/12 11:55:25;;;;;;;511.38;81.85;;;8.50;99.90;;;;;;5064000;28;20089;-65
2022/11/12 11:58:08;;;;;;;493.92;79.75;;;8.40;99.90;;;;;;5065577;28;20044;-64
2022/11/12 12:01:02;;;;;;;403.58;67.18;;;8.80;99.90;;;;;;5049429;28;20046;-64
2022/11/12 12:03:29;;;;;;;;;;;8.90;99.90;;;;;;5019943;28;20060;-64
2022/11/12 12:06:12;;;;;;;470.80;77.85;;;9.00;99.90;;;;;;5065036;28;19924;-63
2022/11/12 12:08:53;;;;;;;539.40;96.00;;;8.90;99.90;;;;;;5083913;28;20101;-63
2022/11/12 12:11:22;;;;;;;370.48;74.15;;;8.30;99.90;;;;;;5064199;28;20511;-64
2022/11/12 12:14:15;;;;;;;308.73;79.10;;;8.30;99.90;;;;;;5064701;28;20054;-64
2022/11/12 12:17:11;;;;;;;310.85;70.15;;;8.20;99.90;;;;;;5065523;28;20076;-63
2022/11/12 12:20:03;;;;;;;280.52;70.03;;;9.10;99.90;;;;;;5065508;28;20133;-64
2022/11/12 12:22:42;;;;;;;270.98;71.97;;;9.00;99.90;;;;;;5063485;28;20051;-63
2022/11/12 12:25:15;;;;;;;223.43;68.20;;;8.30;99.90;;;;;;5062844;28;20048;-64
2022/11/12 12:27:58;;;;;;;342.85;88.07;;;9.10;99.90;;;;;;5081327;28;20097;-64
2022/11/12 12:30:25;;;;;;;233.80;65.88;;;8.40;99.90;;;;;;5057827;28;20606;-65
2022/11/12 12:33:00;;;;;;;322.42;72.20;;;8.80;99.90;;;;;;5077213;28;20040;-66
2022/11/12 12:35:36;;;;;;;194.23;65.80;;;9.20;99.90;;;;;;5057250;28;20051;-66
2022/11/12 12:38:17;;;;;;;167.00;66.20;;;9.30;99.90;;;;;;5057952;28;20044;-65
2022/11/12 12:41:09;;;;;;;126.07;60.10;;;9.20;99.90;;;;;;5042829;28;20398;-65
2022/11/12 12:43:42;;;;;;;111.88;57.20;;;8.70;99.90;;;;;;5058387;28;20048;-64
2022/11/12 12:46:14;;;;;;;103.60;56.10;;;9.30;99.90;;;;;;5059513;28;20044;-66
2022/11/12 12:48:43;;;;;;;94.93;55.90;;;9.20;99.90;;;;;;5060563;28;20485;-65
2022/11/12 12:51:09;;;;;;;79.22;52.35;;;10.10;99.90;;;;;;5060655;28;20056;-65
2022/11/12 12:53:35;;;;;;;70.93;48.55;;;9.70;99.90;;;;;;5076782;28;20199;-66
2022/11/12 12:56:25;;;;;;;72.93;47.95;;;10.20;99.90;;;;;;5058976;28;20040;-64
2022/11/12 12:58:51;;;;;;;62.13;44.40;;;10.10;99.90;;;;;;5055449;28;20070;-65
2022/11/12 13:01:20;;;;;;;71.25;47.83;;;10.30;99.90;;;;;;5076045;28;20622;-65
2022/11/12 13:04:01;;;;;;;66.45;47.08;;;10.50;99.90;;;;;;5076903;28;20772;-65
2022/11/12 13:06:28;;;;;;;50.95;40.35;;;10.90;99.90;;;;;;5037577;28;20131;-66